createdAt,value
2023-02-21T00:00:45.475Z,2.50
2023-02-21T00:03:26.112Z,2.50
2023-02-21T00:06:06.961Z,2.70
2023-02-21T00:08:47.650Z,2.60
2023-02-21T00:11:29.299Z,3.10
2023-02-21T00:14:10.022Z,2.70
2023-02-21T00:16:50.796Z,2.80
2023-02-21T00:19:31.439Z,2.40
2023-02-21T00:22:13.754Z,2.90
2023-02-21T00:24:54.342Z,3.00
2023-02-21T00:27:35.952Z,2.70
2023-02-21T00:30:16.663Z,2.50
2023-02-21T00:32:57.467Z,2.50
2023-02-21T00:35:38.277Z,2.40
2023-02-21T00:38:19.405Z,2.80
2023-02-21T00:41:00.126Z,2.30
2023-02-21T00:43:45.366Z,2.50
2023-02-21T00:46:26.028Z,2.40
2023-02-21T00:49:06.701Z,2.60
2023-02-21T00:51:47.326Z,2.60
2023-02-21T00:54:29.034Z,2.60
2023-02-21T00:57:09.734Z,2.20
2023-02-21T00:59:49.470Z,2.60
2023-02-21T01:05:10.901Z,2.70
2023-02-21T01:07:51.754Z,2.40
2023-02-21T01:10:32.897Z,2.80
2023-02-21T01:13:13.483Z,2.60
2023-02-21T01:15:55.170Z,2.40
2023-02-21T01:18:35.876Z,2.60
2023-02-21T01:21:16.772Z,2.50
2023-02-21T01:23:57.542Z,2.40
2023-02-21T01:26:38.302Z,2.90
2023-02-21T01:29:19.146Z,2.70
2023-02-21T01:31:59.769Z,2.70
2023-02-21T01:34:39.404Z,2.40
2023-02-21T01:37:21.316Z,2.70
2023-02-21T01:40:01.946Z,2.30
2023-02-21T01:42:42.617Z,2.00
2023-02-21T01:45:37.096Z,2.40
2023-02-21T01:48:18.341Z,2.40
2023-02-21T01:50:59.066Z,2.40
2023-02-21T01:53:40.347Z,2.40
2023-02-21T01:56:21.604Z,2.30
2023-02-21T01:59:05.737Z,2.80
2023-02-21T02:02:13.354Z,2.40
2023-02-21T02:04:56.345Z,2.60
2023-02-21T02:07:37.045Z,2.50
2023-02-21T02:10:19.714Z,2.70
2023-02-21T02:13:14.318Z,2.70
2023-02-21T02:15:55.645Z,2.40
2023-02-21T02:18:36.399Z,2.40
2023-02-21T02:21:25.740Z,2.20
2023-02-21T02:23:52.375Z,2.30
2023-02-21T02:26:34.996Z,2.30
2023-02-21T02:29:29.253Z,2.20
2023-02-21T02:32:28.376Z,2.70
2023-02-21T02:35:11.814Z,2.60
2023-02-21T02:37:44.454Z,2.60
2023-02-21T02:40:43.175Z,2.60
2023-02-21T02:43:13.364Z,2.40
2023-02-21T02:45:48.878Z,2.60
2023-02-21T02:48:22.199Z,2.50
2023-02-21T02:50:51.208Z,2.40
2023-02-21T02:53:25.505Z,2.50
2023-02-21T02:55:58.500Z,2.90
2023-02-21T02:58:32.827Z,2.20
2023-02-21T03:01:14.755Z,2.80
2023-02-21T03:04:11.190Z,2.50
2023-02-21T03:06:58.173Z,2.90
2023-02-21T03:09:45.578Z,2.90
2023-02-21T03:12:46.514Z,2.70
2023-02-21T03:15:21.262Z,2.80
2023-02-21T03:18:14.009Z,2.70
2023-02-21T03:20:42.716Z,2.70
2023-02-21T03:23:13.301Z,2.50
2023-02-21T03:25:41.195Z,2.80
2023-02-21T03:28:08.813Z,2.70
2023-02-21T03:30:36.118Z,2.60
2023-02-21T03:33:03.008Z,2.50
2023-02-21T03:35:30.589Z,2.70
2023-02-21T03:37:58.652Z,2.50
2023-02-21T03:40:30.973Z,3.00
2023-02-21T03:42:59.735Z,2.80
2023-02-21T03:45:26.439Z,2.70
2023-02-21T03:47:53.309Z,3.00
2023-02-21T03:50:19.968Z,2.80
2023-02-21T03:52:46.650Z,3.00
2023-02-21T03:55:13.770Z,3.10
2023-02-21T03:57:40.673Z,3.20
2023-02-21T04:00:08.103Z,3.40
2023-02-21T04:02:34.786Z,3.10
2023-02-21T04:05:01.586Z,3.20
2023-02-21T04:07:28.437Z,3.10
2023-02-21T04:09:55.464Z,2.90
2023-02-21T04:12:22.240Z,3.20
2023-02-21T04:14:49.055Z,4.00
2023-02-21T04:17:17.094Z,2.80
2023-02-21T04:19:43.839Z,3.20
2023-02-21T04:22:10.552Z,3.70
2023-02-21T04:24:37.274Z,2.80
2023-02-21T04:27:04.018Z,3.40
2023-02-21T04:29:30.835Z,3.40
2023-02-21T04:31:57.953Z,3.50
2023-02-21T04:34:25.126Z,3.30
2023-02-21T04:36:51.838Z,3.80
2023-02-21T04:39:18.567Z,3.30
2023-02-21T04:41:45.259Z,3.10
2023-02-21T04:44:13.295Z,3.10
2023-02-21T04:46:40.040Z,3.60
2023-02-21T04:49:06.769Z,3.50
2023-02-21T04:51:33.556Z,3.50
2023-02-21T04:54:00.334Z,3.40
2023-02-21T04:56:28.226Z,3.40
2023-02-21T04:58:55.827Z,3.90
2023-02-21T05:01:23.303Z,3.50
2023-02-21T05:03:50.153Z,3.50
2023-02-21T05:06:21.784Z,3.70
2023-02-21T05:08:48.959Z,3.60
2023-02-21T05:11:16.399Z,3.90
2023-02-21T05:13:43.904Z,3.40
2023-02-21T05:16:11.582Z,4.10
2023-02-21T05:18:41.338Z,3.50
2023-02-21T05:23:36.993Z,3.40
2023-02-21T05:26:05.247Z,3.50
2023-02-21T05:28:32.483Z,3.40
2023-02-21T05:31:01.152Z,3.60
2023-02-21T05:33:28.807Z,3.10
2023-02-21T05:35:55.970Z,3.90
2023-02-21T05:38:24.723Z,3.50
2023-02-21T05:40:52.113Z,3.70
2023-02-21T05:43:18.961Z,3.50
2023-02-21T05:45:46.403Z,3.60
2023-02-21T05:48:13.219Z,3.60
2023-02-21T05:50:40.012Z,3.40
2023-02-21T05:53:07.377Z,3.80
2023-02-21T05:55:34.094Z,3.90
2023-02-21T05:58:00.895Z,3.70
2023-02-21T06:00:30.187Z,3.30
2023-02-21T06:02:57.283Z,3.40
2023-02-21T06:05:24.267Z,3.60
2023-02-21T06:07:51.421Z,3.90
2023-02-21T06:10:19.589Z,3.90
2023-02-21T06:12:46.866Z,3.70
2023-02-21T06:15:13.749Z,3.40
2023-02-21T06:17:41.602Z,3.70
2023-02-21T06:20:12.737Z,3.50
2023-02-21T06:22:39.487Z,3.00
2023-02-21T06:25:06.788Z,3.60
2023-02-21T06:27:33.459Z,3.20
2023-02-21T06:30:00.284Z,3.50
2023-02-21T06:32:27.863Z,3.10
2023-02-21T06:34:54.643Z,3.60
2023-02-21T06:37:21.952Z,3.50
2023-02-21T06:39:48.701Z,3.60
2023-02-21T06:42:16.779Z,3.70
2023-02-21T06:44:45.154Z,4.00
2023-02-21T06:47:11.922Z,3.50
2023-02-21T06:49:38.594Z,3.60
2023-02-21T06:52:06.436Z,3.40
2023-02-21T06:54:33.158Z,3.60
2023-02-21T06:57:01.822Z,3.30
2023-02-21T06:59:29.619Z,3.40
2023-02-21T07:01:57.286Z,4.10
2023-02-21T07:04:24.825Z,3.30
2023-02-21T07:06:52.404Z,3.80
2023-02-21T07:09:19.184Z,4.40
2023-02-21T07:11:47.255Z,4.90
2023-02-21T07:14:14.515Z,4.00
2023-02-21T07:16:41.995Z,3.80
2023-02-21T07:19:08.824Z,4.30
2023-02-21T07:21:35.566Z,4.00
2023-02-21T07:24:02.344Z,3.50
2023-02-21T07:26:29.016Z,3.30
2023-02-21T07:28:55.798Z,3.90
2023-02-21T07:31:23.197Z,3.50
2023-02-21T07:33:50.054Z,3.50
2023-02-21T07:36:17.254Z,3.50
2023-02-21T07:38:44.253Z,3.50
2023-02-21T07:41:11.305Z,4.40
2023-02-21T07:43:39.329Z,4.00
2023-02-21T07:46:14.307Z,3.60
2023-02-21T07:48:41.050Z,3.80
2023-02-21T07:51:08.777Z,2.70
2023-02-21T07:53:35.629Z,2.90
2023-02-21T07:56:04.535Z,3.00
2023-02-21T07:58:32.706Z,3.00
2023-02-21T08:00:59.690Z,2.90
2023-02-21T08:03:26.583Z,3.10
2023-02-21T08:05:53.837Z,3.50
2023-02-21T08:08:20.494Z,2.80
2023-02-21T08:10:47.272Z,3.10
2023-02-21T08:13:14.176Z,3.50
2023-02-21T08:15:40.976Z,3.00
2023-02-21T08:18:18.948Z,3.50
2023-02-21T08:20:45.709Z,3.00
2023-02-21T08:23:12.551Z,3.10
2023-02-21T08:25:39.888Z,3.30
2023-02-21T08:28:06.590Z,3.20
2023-02-21T08:30:33.551Z,3.10
2023-02-21T08:33:00.296Z,3.40
2023-02-21T08:35:27.204Z,3.20
2023-02-21T08:37:57.044Z,3.00
2023-02-21T08:42:53.836Z,3.00
2023-02-21T08:45:22.804Z,3.10
2023-02-21T08:47:51.657Z,3.10
2023-02-21T08:50:20.079Z,3.10
2023-02-21T08:52:48.477Z,3.00
2023-02-21T08:55:16.033Z,2.70
2023-02-21T08:57:43.166Z,3.30
2023-02-21T09:00:13.892Z,3.80
2023-02-21T09:02:40.831Z,3.40
2023-02-21T09:05:10.619Z,3.10
2023-02-21T09:07:38.246Z,2.90
2023-02-21T09:10:06.666Z,3.00
2023-02-21T09:12:38.161Z,3.00
2023-02-21T09:15:06.967Z,3.20
2023-02-21T09:17:34.413Z,3.30
2023-02-21T09:22:55.819Z,3.00
2023-02-21T09:25:25.072Z,3.10
2023-02-21T09:27:54.614Z,3.50
2023-02-21T09:30:26.438Z,3.40
2023-02-21T09:32:55.071Z,3.10
2023-02-21T09:35:23.106Z,3.90
2023-02-21T09:37:49.809Z,3.40
2023-02-21T09:40:29.816Z,3.70
2023-02-21T09:43:00.548Z,3.30
2023-02-21T09:45:38.075Z,3.70
2023-02-21T09:48:11.436Z,3.50
2023-02-21T09:51:08.903Z,3.40
2023-02-21T09:53:40.686Z,3.10
2023-02-21T09:56:30.005Z,4.20
2023-02-21T09:58:59.162Z,3.80
2023-02-21T10:01:47.974Z,3.90
2023-02-21T10:04:18.001Z,3.70
2023-02-21T10:06:57.997Z,3.50
2023-02-21T10:09:41.970Z,3.80
2023-02-21T10:12:24.840Z,3.70
2023-02-21T10:15:16.450Z,3.80
2023-02-21T10:17:57.990Z,3.90
2023-02-21T10:20:35.948Z,4.20
2023-02-21T10:23:06.351Z,3.70
2023-02-21T10:25:37.044Z,4.40
2023-02-21T10:28:04.193Z,4.10
2023-02-21T10:30:40.451Z,4.20
2023-02-21T10:33:08.695Z,4.50
2023-02-21T10:35:39.600Z,4.00
2023-02-21T10:38:17.643Z,4.00
2023-02-21T10:40:45.832Z,3.90
2023-02-21T10:43:32.756Z,4.00
2023-02-21T10:46:10.666Z,3.40
2023-02-21T10:48:41.713Z,3.80
2023-02-21T10:51:28.450Z,3.80
2023-02-21T10:54:23.150Z,4.00
2023-02-21T10:59:37.317Z,3.90
2023-02-21T11:02:33.191Z,3.70
2023-02-21T11:05:29.932Z,3.80
2023-02-21T11:08:03.397Z,3.90
2023-02-21T11:10:34.707Z,3.90
2023-02-21T11:13:04.679Z,4.00
2023-02-21T11:15:32.096Z,4.00
2023-02-21T11:18:12.473Z,4.90
2023-02-21T11:20:39.473Z,5.00
2023-02-21T11:23:19.840Z,5.40
2023-02-21T11:25:47.389Z,7.20
2023-02-21T11:28:14.053Z,4.80
2023-02-21T11:30:52.767Z,5.30
2023-02-21T11:33:24.035Z,4.30
2023-02-21T11:35:52.891Z,4.90
2023-02-21T11:38:35.973Z,5.30
2023-02-21T11:41:16.262Z,4.20
2023-02-21T11:43:52.191Z,4.90
2023-02-21T11:46:35.784Z,4.40
2023-02-21T11:49:19.374Z,3.80
2023-02-21T11:51:52.153Z,3.50
2023-02-21T11:54:27.875Z,3.70
2023-02-21T11:57:17.421Z,3.50
2023-02-21T11:59:56.909Z,2.70
2023-02-21T12:02:37.820Z,2.90
2023-02-21T12:05:14.839Z,2.70
2023-02-21T12:07:58.132Z,3.10
2023-02-21T12:10:47.425Z,3.70
2023-02-21T12:13:31.028Z,2.70
2023-02-21T12:16:22.349Z,3.40
2023-02-21T12:19:11.911Z,2.80
2023-02-21T12:21:38.868Z,3.30
2023-02-21T12:24:17.371Z,2.70
2023-02-21T12:26:55.477Z,2.10
2023-02-21T12:29:28.307Z,2.20
2023-02-21T12:32:09.171Z,2.80
2023-02-21T12:35:13.761Z,2.30
2023-02-21T12:37:55.732Z,3.10
2023-02-21T12:40:59.358Z,3.10
2023-02-21T12:43:44.377Z,3.00
2023-02-21T12:46:31.593Z,2.60
2023-02-21T12:49:27.507Z,2.90
2023-02-21T12:52:15.371Z,2.50
2023-02-21T12:55:07.077Z,2.60
2023-02-21T12:58:01.624Z,3.10
2023-02-21T13:00:54.892Z,2.70
2023-02-21T13:03:39.602Z,3.00
2023-02-21T13:06:15.216Z,2.70
2023-02-21T13:08:59.321Z,2.80
2023-02-21T13:11:33.213Z,3.00
2023-02-21T13:14:00.850Z,2.90
2023-02-21T13:16:28.218Z,3.30
2023-02-21T13:19:05.895Z,3.50
2023-02-21T13:21:45.654Z,3.30
2023-02-21T13:27:31.657Z,2.60
2023-02-21T13:30:23.725Z,3.00
2023-02-21T13:32:59.873Z,2.70
2023-02-21T13:35:36.674Z,3.70
2023-02-21T13:38:07.053Z,3.00
2023-02-21T13:40:38.672Z,2.80
2023-02-21T13:43:24.749Z,3.40
2023-02-21T13:45:53.316Z,2.90
2023-02-21T13:48:24.016Z,3.10
2023-02-21T13:50:54.212Z,4.40
2023-02-21T13:53:34.687Z,3.20
2023-02-21T13:56:07.817Z,3.80
2023-02-21T13:58:37.633Z,3.40
2023-02-21T14:01:40.197Z,3.00
2023-02-21T14:04:34.656Z,2.90
2023-02-21T14:07:02.908Z,2.90
2023-02-21T14:09:37.194Z,2.70
2023-02-21T14:12:05.945Z,3.50
2023-02-21T14:14:39.605Z,2.80
2023-02-21T14:17:13.108Z,3.30
2023-02-21T14:19:44.260Z,3.10
2023-02-21T14:22:20.524Z,5.10
2023-02-21T14:24:50.277Z,3.90
2023-02-21T14:29:45.215Z,2.60
2023-02-21T14:32:12.145Z,2.40
2023-02-21T14:34:48.359Z,3.00
2023-02-21T14:37:46.765Z,2.70
2023-02-21T14:40:43.467Z,2.40
2023-02-21T14:43:22.384Z,3.80
2023-02-21T14:46:14.674Z,2.20
2023-02-21T14:48:53.139Z,2.80
2023-02-21T14:51:47.708Z,2.60
2023-02-21T14:54:23.381Z,2.40
2023-02-21T15:00:12.087Z,2.70
2023-02-21T15:02:52.825Z,2.70
2023-02-21T15:05:40.647Z,2.70
2023-02-21T15:08:07.559Z,3.20
2023-02-21T15:10:42.029Z,3.10
2023-02-21T15:13:23.634Z,3.50
2023-02-21T15:16:01.574Z,4.10
2023-02-21T15:18:35.052Z,4.00
2023-02-21T15:21:07.222Z,4.70
2023-02-21T15:23:35.231Z,3.40
2023-02-21T15:26:18.977Z,3.80
2023-02-21T15:28:46.738Z,4.00
2023-02-21T15:31:14.708Z,4.00
2023-02-21T15:33:44.278Z,4.20
2023-02-21T15:36:22.103Z,3.70
2023-02-21T15:39:20.349Z,4.10
2023-02-21T15:41:50.262Z,4.20
2023-02-21T15:44:51.203Z,3.80
2023-02-21T15:47:22.539Z,3.90
2023-02-21T15:50:01.833Z,3.80
2023-02-21T15:52:46.678Z,4.30
2023-02-21T15:55:20.400Z,4.10
2023-02-21T15:58:00.238Z,4.10
2023-02-21T16:03:24.417Z,4.60
2023-02-21T16:05:51.744Z,3.50
2023-02-21T16:08:18.892Z,3.10
2023-02-21T16:10:46.126Z,4.00
2023-02-21T16:13:14.858Z,3.70
2023-02-21T16:15:43.499Z,4.30
2023-02-21T16:18:18.161Z,4.00
2023-02-21T16:20:46.048Z,3.70
2023-02-21T16:23:30.278Z,4.10
2023-02-21T16:26:13.625Z,4.30
2023-02-21T16:28:41.573Z,3.90
2023-02-21T16:31:15.056Z,4.20
2023-02-21T16:33:42.148Z,4.10
2023-02-21T16:36:27.548Z,4.50
2023-02-21T16:38:56.510Z,4.50
2023-02-21T16:41:23.996Z,3.70
2023-02-21T16:43:51.043Z,3.60
2023-02-21T16:46:32.039Z,4.50
2023-02-21T16:48:59.966Z,4.00
2023-02-21T16:51:33.939Z,4.20
2023-02-21T16:54:01.616Z,4.80
2023-02-21T16:56:28.536Z,4.50
2023-02-21T16:58:57.377Z,4.10
2023-02-21T17:01:26.577Z,4.30
2023-02-21T17:03:54.045Z,5.20
2023-02-21T17:06:24.352Z,5.50
2023-02-21T17:08:51.767Z,5.60
2023-02-21T17:11:18.870Z,5.60
2023-02-21T17:13:45.816Z,6.10
2023-02-21T17:16:12.706Z,5.90
2023-02-21T17:18:39.589Z,6.90
2023-02-21T17:21:06.419Z,6.80
2023-02-21T17:23:33.236Z,7.50
2023-02-21T17:26:00.116Z,7.50
2023-02-21T17:28:26.909Z,6.20
2023-02-21T17:30:53.897Z,6.40
2023-02-21T17:33:20.661Z,6.10
2023-02-21T17:35:47.451Z,7.50
2023-02-21T17:38:14.266Z,6.80
2023-02-21T17:40:41.164Z,7.00
2023-02-21T17:43:09.191Z,6.80
2023-02-21T17:45:36.588Z,7.30
2023-02-21T17:48:05.739Z,7.30
2023-02-21T17:50:33.105Z,7.70
2023-02-21T17:53:00.686Z,6.70
2023-02-21T17:55:29.834Z,7.10
2023-02-21T17:57:57.704Z,8.00
2023-02-21T18:00:27.541Z,7.20
2023-02-21T18:05:22.950Z,6.80
2023-02-21T18:07:52.493Z,7.90
2023-02-21T18:10:22.180Z,7.40
2023-02-21T18:12:51.198Z,7.60
2023-02-21T18:15:20.857Z,9.10
2023-02-21T18:17:47.939Z,9.60
2023-02-21T18:20:16.083Z,9.50
2023-02-21T18:22:43.314Z,9.30
2023-02-21T18:25:11.221Z,8.60
2023-02-21T18:27:38.177Z,8.30
2023-02-21T18:30:06.280Z,8.90
2023-02-21T18:32:33.424Z,10.30
2023-02-21T18:35:00.848Z,12.70
2023-02-21T18:37:27.765Z,16.70
2023-02-21T18:39:55.726Z,13.50
2023-02-21T18:42:24.239Z,10.60
2023-02-21T18:44:52.556Z,11.30
2023-02-21T18:47:20.199Z,11.50
2023-02-21T18:49:48.928Z,9.70
2023-02-21T18:52:16.804Z,11.10
2023-02-21T18:54:45.815Z,12.00
2023-02-21T18:57:13.159Z,10.10
2023-02-21T18:59:40.296Z,9.10
2023-02-21T19:02:08.793Z,7.30
2023-02-21T19:04:35.564Z,6.60
2023-02-21T19:07:07.612Z,7.40
2023-02-21T19:09:35.681Z,8.90
2023-02-21T19:12:03.766Z,9.20
2023-02-21T19:14:31.036Z,9.50
2023-02-21T19:16:57.758Z,8.80
2023-02-21T19:19:24.475Z,6.50
2023-02-21T19:21:51.276Z,6.20
2023-02-21T19:24:18.429Z,6.80
2023-02-21T19:26:45.341Z,6.00
2023-02-21T19:29:12.696Z,8.10
2023-02-21T19:31:39.644Z,8.90
2023-02-21T19:34:06.842Z,11.70
2023-02-21T19:36:39.967Z,10.30
2023-02-21T19:39:08.636Z,9.10
2023-02-21T19:41:40.591Z,8.60
2023-02-21T19:44:08.485Z,8.80
2023-02-21T19:46:35.715Z,9.50
2023-02-21T19:49:07.120Z,8.10
2023-02-21T19:51:34.330Z,7.00
2023-02-21T19:54:01.477Z,6.10
2023-02-21T19:56:28.587Z,5.80
2023-02-21T19:58:55.622Z,4.70
2023-02-21T20:01:23.357Z,4.10
2023-02-21T20:03:51.064Z,4.30
2023-02-21T20:06:18.789Z,4.40
2023-02-21T20:08:48.908Z,4.30
2023-02-21T20:11:17.922Z,5.60
2023-02-21T20:13:45.485Z,6.50
2023-02-21T20:16:15.702Z,5.30
2023-02-21T20:18:46.466Z,4.20
2023-02-21T20:21:29.237Z,4.70
2023-02-21T20:23:58.161Z,4.70
2023-02-21T20:26:25.090Z,5.30
2023-02-21T20:28:53.072Z,3.70
2023-02-21T20:31:21.355Z,5.50
2023-02-21T20:33:48.455Z,4.00
2023-02-21T20:36:16.727Z,5.10
2023-02-21T20:38:44.104Z,5.50
2023-02-21T20:41:14.035Z,5.70
2023-02-21T20:43:41.608Z,5.60
2023-02-21T20:46:11.424Z,4.80
2023-02-21T20:48:39.116Z,5.90
2023-02-21T20:51:08.684Z,5.70
2023-02-21T20:53:36.769Z,4.90
2023-02-21T20:56:05.239Z,7.20
2023-02-21T20:58:32.115Z,5.50
2023-02-21T21:00:58.803Z,10.30
2023-02-21T21:03:29.550Z,8.20
2023-02-21T21:05:56.799Z,5.20
2023-02-21T21:08:23.644Z,5.40
2023-02-21T21:10:51.210Z,5.00
2023-02-21T21:13:17.983Z,5.30
2023-02-21T21:15:44.856Z,6.90
2023-02-21T21:18:12.408Z,4.60
2023-02-21T21:20:39.174Z,5.80
2023-02-21T21:23:07.239Z,5.60
2023-02-21T21:25:34.802Z,5.20
2023-02-21T21:28:02.480Z,5.50
2023-02-21T21:30:30.719Z,4.90
2023-02-21T21:32:58.196Z,5.90
2023-02-21T21:35:30.169Z,6.20
2023-02-21T21:37:58.836Z,5.60
2023-02-21T21:40:28.964Z,6.40
2023-02-21T21:42:56.159Z,5.90
2023-02-21T21:45:26.340Z,5.60
2023-02-21T21:47:56.500Z,5.00
2023-02-21T21:50:23.274Z,5.70
2023-02-21T21:52:58.925Z,6.40
2023-02-21T21:55:28.788Z,7.20
2023-02-21T22:00:28.774Z,7.10
2023-02-21T22:02:58.237Z,6.30
2023-02-21T22:05:30.763Z,7.90
2023-02-21T22:07:58.387Z,6.70
2023-02-21T22:10:27.003Z,6.40
2023-02-21T22:12:56.859Z,6.70
2023-02-21T22:17:52.729Z,5.10
2023-02-21T22:20:28.504Z,6.10
2023-02-21T22:22:59.453Z,6.10
2023-02-21T22:25:28.482Z,6.60
2023-02-21T22:27:55.358Z,7.10
2023-02-21T22:30:23.012Z,7.40
2023-02-21T22:32:50.144Z,7.30
2023-02-21T22:35:19.695Z,6.10
2023-02-21T22:37:51.076Z,6.80
2023-02-21T22:40:24.325Z,6.00
2023-02-21T22:42:57.230Z,5.70
2023-02-21T22:45:24.620Z,5.50
2023-02-21T22:47:54.016Z,5.70
2023-02-21T22:50:23.148Z,5.20
2023-02-21T22:52:59.789Z,5.40
2023-02-21T22:55:27.698Z,6.00
2023-02-21T22:57:59.202Z,4.60
2023-02-21T23:00:33.425Z,4.60
2023-02-21T23:03:13.333Z,5.00
2023-02-21T23:05:45.991Z,5.80
2023-02-21T23:08:15.998Z,5.30
2023-02-21T23:10:43.679Z,6.20
2023-02-21T23:13:18.487Z,6.90
2023-02-21T23:15:46.189Z,5.80
2023-02-21T23:18:20.903Z,6.90
2023-02-21T23:20:56.949Z,7.00
2023-02-21T23:23:26.465Z,7.50
2023-02-21T23:25:56.605Z,7.60
2023-02-21T23:28:23.335Z,6.40
2023-02-21T23:30:50.434Z,6.20
2023-02-21T23:33:23.119Z,6.40
2023-02-21T23:35:51.807Z,5.50
2023-02-21T23:38:22.522Z,5.30
2023-02-21T23:40:56.336Z,6.00
2023-02-21T23:43:30.931Z,5.00
2023-02-21T23:45:59.855Z,5.40
2023-02-21T23:48:26.839Z,5.80
2023-02-21T23:50:58.167Z,5.40
2023-02-21T23:53:28.290Z,5.40
2023-02-21T23:55:57.917Z,7.30
2023-02-21T23:58:28.008Z,5.90
